sensor_id;sensor_type;location;lat;lon;timestamp;pressure;altitude;pressure_sealevel;temperature;humidity
53011;BME280;42803;55.762;38.084;2023-06-10T00:00:31;99958.44;;;8.91;93.55
53011;BME280;42803;55.762;38.084;2023-06-10T00:03:00;99957.13;;;8.86;93.99
53011;BME280;42803;55.762;38.084;2023-06-10T00:05:29;99952.91;;;8.78;93.99
53011;BME280;42803;55.762;38.084;2023-06-10T00:08:00;99959.50;;;8.74;94.67
53011;BME280;42803;55.762;38.084;2023-06-10T00:10:34;99961.34;;;8.75;94.51
53011;BME280;42803;55.762;38.084;2023-06-10T00:13:04;99960.75;;;8.69;94.62
53011;BME280;42803;55.762;38.084;2023-06-10T00:15:36;99959.31;;;8.63;94.52
53011;BME280;42803;55.762;38.084;2023-06-10T00:18:05;99955.22;;;8.56;94.56
53011;BME280;42803;55.762;38.084;2023-06-10T00:20:38;99962.16;;;8.47;95.29
53011;BME280;42803;55.762;38.084;2023-06-10T00:23:08;99960.69;;;8.40;95.56
53011;BME280;42803;55.762;38.084;2023-06-10T00:25:37;99963.47;;;8.33;96.24
53011;BME280;42803;55.762;38.084;2023-06-10T00:28:07;99964.50;;;8.35;96.12
53011;BME280;42803;55.762;38.084;2023-06-10T00:30:36;99968.66;;;8.33;95.90
53011;BME280;42803;55.762;38.084;2023-06-10T00:33:05;99972.38;;;8.26;96.22
53011;BME280;42803;55.762;38.084;2023-06-10T00:35:35;99970.25;;;8.22;96.63
53011;BME280;42803;55.762;38.084;2023-06-10T00:38:04;99977.63;;;8.18;97.33
53011;BME280;42803;55.762;38.084;2023-06-10T00:40:39;99978.25;;;8.15;97.22
53011;BME280;42803;55.762;38.084;2023-06-10T00:43:09;99970.03;;;8.11;97.28
53011;BME280;42803;55.762;38.084;2023-06-10T00:45:38;99979.94;;;8.15;97.34
53011;BME280;42803;55.762;38.084;2023-06-10T00:48:07;99977.84;;;8.11;97.57
53011;BME280;42803;55.762;38.084;2023-06-10T00:50:37;99988.22;;;8.11;98.09
53011;BME280;42803;55.762;38.084;2023-06-10T00:53:07;99988.03;;;8.18;97.28
53011;BME280;42803;55.762;38.084;2023-06-10T00:55:39;99983.50;;;8.34;97.17
53011;BME280;42803;55.762;38.084;2023-06-10T00:58:10;99975.41;;;8.59;95.34
53011;BME280;42803;55.762;38.084;2023-06-10T01:00:39;99978.44;;;8.82;93.93
53011;BME280;42803;55.762;38.084;2023-06-10T01:03:08;99983.88;;;9.04;93.02
53011;BME280;42803;55.762;38.084;2023-06-10T01:05:38;99983.00;;;9.33;91.29
53011;BME280;42803;55.762;38.084;2023-06-10T01:08:14;99988.03;;;9.60;89.55
53011;BME280;42803;55.762;38.084;2023-06-10T01:10:51;99989.19;;;9.93;87.83
53011;BME280;42803;55.762;38.084;2023-06-10T01:13:23;99993.91;;;10.17;86.46
53011;BME280;42803;55.762;38.084;2023-06-10T01:15:58;99994.22;;;10.51;85.05
53011;BME280;42803;55.762;38.084;2023-06-10T01:18:30;99994.88;;;10.69;83.75
53011;BME280;42803;55.762;38.084;2023-06-10T01:20:59;99996.78;;;11.02;82.19
53011;BME280;42803;55.762;38.084;2023-06-10T01:23:30;99995.66;;;11.31;80.73
53011;BME280;42803;55.762;38.084;2023-06-10T01:26:02;100004.25;;;11.72;79.30
53011;BME280;42803;55.762;38.084;2023-06-10T01:28:36;100009.94;;;11.88;77.96
53011;BME280;42803;55.762;38.084;2023-06-10T01:31:11;100005.63;;;12.11;77.08
53011;BME280;42803;55.762;38.084;2023-06-10T01:33:46;100017.47;;;12.39;75.68
53011;BME280;42803;55.762;38.084;2023-06-10T01:36:17;100009.34;;;12.70;74.60
53011;BME280;42803;55.762;38.084;2023-06-10T01:38:49;100022.28;;;13.02;73.18
53011;BME280;42803;55.762;38.084;2023-06-10T01:41:19;100030.44;;;13.40;71.61
53011;BME280;42803;55.762;38.084;2023-06-10T01:43:50;100029.41;;;14.10;70.30
53011;BME280;42803;55.762;38.084;2023-06-10T01:46:19;100032.25;;;14.13;68.56
53011;BME280;42803;55.762;38.084;2023-06-10T01:48:49;100039.13;;;13.39;71.28
53011;BME280;42803;55.762;38.084;2023-06-10T01:51:18;100034.81;;;13.88;69.89
53011;BME280;42803;55.762;38.084;2023-06-10T01:53:49;100041.75;;;14.00;68.48
53011;BME280;42803;55.762;38.084;2023-06-10T01:56:18;100038.38;;;13.77;68.08
53011;BME280;42803;55.762;38.084;2023-06-10T01:58:47;100037.41;;;14.12;68.68
53011;BME280;42803;55.762;38.084;2023-06-10T02:01:16;100044.19;;;14.83;66.76
53011;BME280;42803;55.762;38.084;2023-06-10T02:03:46;100046.72;;;14.57;65.06
53011;BME280;42803;55.762;38.084;2023-06-10T02:06:15;100046.63;;;13.70;68.14
53011;BME280;42803;55.762;38.084;2023-06-10T02:08:44;100051.78;;;14.54;66.71
53011;BME280;42803;55.762;38.084;2023-06-10T02:11:15;100052.34;;;15.00;64.93
53011;BME280;42803;55.762;38.084;2023-06-10T02:13:44;100063.53;;;15.62;63.17
53011;BME280;42803;55.762;38.084;2023-06-10T02:16:13;100055.72;;;15.90;61.83
53011;BME280;42803;55.762;38.084;2023-06-10T02:18:44;100062.03;;;14.14;64.18
53011;BME280;42803;55.762;38.084;2023-06-10T02:21:14;100077.50;;;12.48;70.00
53011;BME280;42803;55.762;38.084;2023-06-10T02:23:43;100080.03;;;11.40;74.23
53011;BME280;42803;55.762;38.084;2023-06-10T02:26:12;100074.63;;;10.76;77.26
53011;BME280;42803;55.762;38.084;2023-06-10T02:28:43;100084.31;;;11.07;77.89
53011;BME280;42803;55.762;38.084;2023-06-10T02:31:14;100082.34;;;10.74;78.74
53011;BME280;42803;55.762;38.084;2023-06-10T02:33:46;100085.75;;;10.73;79.10
53011;BME280;42803;55.762;38.084;2023-06-10T02:36:16;100086.50;;;10.62;79.18
53011;BME280;42803;55.762;38.084;2023-06-10T02:38:46;100087.69;;;10.55;79.95
53011;BME280;42803;55.762;38.084;2023-06-10T02:41:16;100086.63;;;11.67;78.43
53011;BME280;42803;55.762;38.084;2023-06-10T02:43:47;100088.13;;;11.53;75.18
53011;BME280;42803;55.762;38.084;2023-06-10T02:46:16;100089.59;;;12.58;73.50
53011;BME280;42803;55.762;38.084;2023-06-10T02:48:46;100090.50;;;11.92;72.94
53011;BME280;42803;55.762;38.084;2023-06-10T02:51:21;100092.56;;;12.96;70.41
53011;BME280;42803;55.762;38.084;2023-06-10T02:53:56;100084.34;;;13.72;69.22
53011;BME280;42803;55.762;38.084;2023-06-10T02:56:25;100092.19;;;15.97;63.43
53011;BME280;42803;55.762;38.084;2023-06-10T02:58:59;100083.34;;;16.23;60.02
53011;BME280;42803;55.762;38.084;2023-06-10T03:01:31;100081.34;;;17.18;57.95
53011;BME280;42803;55.762;38.084;2023-06-10T03:04:05;100095.72;;;17.83;55.74
53011;BME280;42803;55.762;38.084;2023-06-10T03:06:35;100093.53;;;18.21;55.38
53011;BME280;42803;55.762;38.084;2023-06-10T03:09:29;100087.88;;;18.15;53.63
53011;BME280;42803;55.762;38.084;2023-06-10T03:12:00;100104.91;;;17.15;55.10
53011;BME280;42803;55.762;38.084;2023-06-10T03:14:37;100106.88;;;15.29;58.89
53011;BME280;42803;55.762;38.084;2023-06-10T03:17:07;100102.53;;;14.29;62.53
53011;BME280;42803;55.762;38.084;2023-06-10T03:19:40;100102.50;;;13.46;64.61
53011;BME280;42803;55.762;38.084;2023-06-10T03:22:11;100111.09;;;13.21;65.96
53011;BME280;42803;55.762;38.084;2023-06-10T03:24:58;100108.50;;;12.87;67.16
53011;BME280;42803;55.762;38.084;2023-06-10T03:27:31;100106.34;;;13.27;67.15
53011;BME280;42803;55.762;38.084;2023-06-10T03:30:06;100095.41;;;13.33;66.55
53011;BME280;42803;55.762;38.084;2023-06-10T03:32:37;100109.81;;;13.16;66.70
53011;BME280;42803;55.762;38.084;2023-06-10T03:35:08;100100.78;;;13.01;66.96
53011;BME280;42803;55.762;38.084;2023-06-10T03:37:38;100095.22;;;12.74;67.44
53011;BME280;42803;55.762;38.084;2023-06-10T03:40:08;100107.50;;;12.63;67.95
53011;BME280;42803;55.762;38.084;2023-06-10T03:42:41;100104.47;;;12.81;67.87
53011;BME280;42803;55.762;38.084;2023-06-10T03:45:15;100109.94;;;13.06;67.72
53011;BME280;42803;55.762;38.084;2023-06-10T03:47:46;100106.72;;;12.98;67.21
53011;BME280;42803;55.762;38.084;2023-06-10T03:50:19;100117.38;;;12.89;67.40
53011;BME280;42803;55.762;38.084;2023-06-10T03:52:50;100111.06;;;12.98;67.28
53011;BME280;42803;55.762;38.084;2023-06-10T03:55:23;100107.28;;;13.39;66.55
53011;BME280;42803;55.762;38.084;2023-06-10T03:57:54;100104.09;;;13.67;65.93
53011;BME280;42803;55.762;38.084;2023-06-10T04:00:25;100108.66;;;14.05;64.80
53011;BME280;42803;55.762;38.084;2023-06-10T04:02:54;100111.00;;;14.13;64.59
53011;BME280;42803;55.762;38.084;2023-06-10T04:05:34;100107.97;;;14.56;63.62
53011;BME280;42803;55.762;38.084;2023-06-10T04:08:04;100108.88;;;15.58;60.91
53011;BME280;42803;55.762;38.084;2023-06-10T04:10:34;100109.97;;;17.12;57.71
53011;BME280;42803;55.762;38.084;2023-06-10T04:13:03;100104.66;;;18.63;53.27
53011;BME280;42803;55.762;38.084;2023-06-10T04:15:40;100108.25;;;19.81;51.55
53011;BME280;42803;55.762;38.084;2023-06-10T04:18:14;100113.78;;;19.52;50.15
53011;BME280;42803;55.762;38.084;2023-06-10T04:20:45;100119.44;;;19.93;48.50
53011;BME280;42803;55.762;38.084;2023-06-10T04:23:14;100114.53;;;20.01;48.29
53011;BME280;42803;55.762;38.084;2023-06-10T04:25:46;100107.31;;;19.99;47.08
53011;BME280;42803;55.762;38.084;2023-06-10T04:28:15;100127.72;;;18.35;49.22
53011;BME280;42803;55.762;38.084;2023-06-10T04:30:46;100127.31;;;15.71;54.08
53011;BME280;42803;55.762;38.084;2023-06-10T04:33:16;100124.00;;;14.35;57.16
53011;BME280;42803;55.762;38.084;2023-06-10T04:35:45;100135.69;;;13.69;59.55
53011;BME280;42803;55.762;38.084;2023-06-10T04:38:16;100137.13;;;13.30;61.51
53011;BME280;42803;55.762;38.084;2023-06-10T04:40:45;100136.88;;;13.27;62.08
53011;BME280;42803;55.762;38.084;2023-06-10T04:43:16;100149.59;;;13.10;61.55
53011;BME280;42803;55.762;38.084;2023-06-10T04:45:47;100150.22;;;12.96;61.79
53011;BME280;42803;55.762;38.084;2023-06-10T04:48:16;100147.88;;;12.77;62.24
53011;BME280;42803;55.762;38.084;2023-06-10T04:50:47;100156.03;;;12.70;62.42
53011;BME280;42803;55.762;38.084;2023-06-10T04:53:16;100162.06;;;12.69;62.62
53011;BME280;42803;55.762;38.084;2023-06-10T04:55:47;100152.44;;;12.58;62.29
53011;BME280;42803;55.762;38.084;2023-06-10T04:58:17;100158.75;;;12.60;62.83
53011;BME280;42803;55.762;38.084;2023-06-10T05:00:47;100160.56;;;12.61;62.88
53011;BME280;42803;55.762;38.084;2023-06-10T05:03:16;100175.00;;;12.56;62.76
53011;BME280;42803;55.762;38.084;2023-06-10T05:05:45;100158.53;;;12.47;63.35
53011;BME280;42803;55.762;38.084;2023-06-10T05:08:14;100156.28;;;12.51;63.60
53011;BME280;42803;55.762;38.084;2023-06-10T05:11:02;100158.91;;;12.51;63.91
53011;BME280;42803;55.762;38.084;2023-06-10T05:13:32;100159.44;;;12.47;64.38
53011;BME280;42803;55.762;38.084;2023-06-10T05:16:03;100160.31;;;12.58;64.92
53011;BME280;42803;55.762;38.084;2023-06-10T05:18:32;100157.06;;;12.50;64.67
53011;BME280;42803;55.762;38.084;2023-06-10T05:21:01;100162.38;;;12.62;64.60
53011;BME280;42803;55.762;38.084;2023-06-10T05:23:33;100159.50;;;12.59;63.81
53011;BME280;42803;55.762;38.084;2023-06-10T05:26:02;100174.19;;;12.57;63.64
53011;BME280;42803;55.762;38.084;2023-06-10T05:28:31;100163.28;;;12.62;64.10
53011;BME280;42803;55.762;38.084;2023-06-10T05:31:00;100167.84;;;12.65;63.38
53011;BME280;42803;55.762;38.084;2023-06-10T05:33:34;100164.38;;;12.76;63.08
53011;BME280;42803;55.762;38.084;2023-06-10T05:36:04;100167.25;;;12.79;62.85
53011;BME280;42803;55.762;38.084;2023-06-10T05:38:33;100166.84;;;12.97;62.74
53011;BME280;42803;55.762;38.084;2023-06-10T05:41:02;100173.09;;;12.87;62.92
53011;BME280;42803;55.762;38.084;2023-06-10T05:43:32;100175.66;;;12.75;63.20
53011;BME280;42803;55.762;38.084;2023-06-10T05:46:01;100172.09;;;12.97;63.33
53011;BME280;42803;55.762;38.084;2023-06-10T05:48:30;100174.97;;;13.00;63.31
53011;BME280;42803;55.762;38.084;2023-06-10T05:51:01;100174.41;;;13.04;62.97
53011;BME280;42803;55.762;38.084;2023-06-10T05:53:31;100181.41;;;13.15;62.74
53011;BME280;42803;55.762;38.084;2023-06-10T05:56:01;100174.91;;;13.44;62.85
53011;BME280;42803;55.762;38.084;2023-06-10T05:58:30;100173.97;;;13.43;62.09
53011;BME280;42803;55.762;38.084;2023-06-10T06:00:59;100180.47;;;13.36;61.62
53011;BME280;42803;55.762;38.084;2023-06-10T06:03:28;100185.00;;;13.27;61.07
53011;BME280;42803;55.762;38.084;2023-06-10T06:05:58;100188.25;;;13.13;61.70
53011;BME280;42803;55.762;38.084;2023-06-10T06:08:29;100172.69;;;13.26;61.69
53011;BME280;42803;55.762;38.084;2023-06-10T06:10:58;100177.97;;;13.50;61.24
53011;BME280;42803;55.762;38.084;2023-06-10T06:13:27;100173.91;;;13.65;60.72
53011;BME280;42803;55.762;38.084;2023-06-10T06:15:56;100179.63;;;13.71;60.31
53011;BME280;42803;55.762;38.084;2023-06-10T06:18:25;100176.19;;;13.72;60.71
53011;BME280;42803;55.762;38.084;2023-06-10T06:20:55;100182.44;;;14.33;60.29
53011;BME280;42803;55.762;38.084;2023-06-10T06:23:43;100173.63;;;14.93;58.30
53011;BME280;42803;55.762;38.084;2023-06-10T06:26:13;100177.97;;;15.17;57.83
53011;BME280;42803;55.762;38.084;2023-06-10T06:28:42;100183.84;;;14.76;57.54
53011;BME280;42803;55.762;38.084;2023-06-10T06:31:11;100189.16;;;14.41;58.63
53011;BME280;42803;55.762;38.084;2023-06-10T06:33:40;100183.00;;;14.41;58.62
53011;BME280;42803;55.762;38.084;2023-06-10T06:36:10;100183.69;;;14.61;58.08
53011;BME280;42803;55.762;38.084;2023-06-10T06:38:39;100184.16;;;14.56;58.62
53011;BME280;42803;55.762;38.084;2023-06-10T06:41:09;100185.78;;;15.16;57.55
53011;BME280;42803;55.762;38.084;2023-06-10T06:43:38;100174.44;;;15.42;56.58
53011;BME280;42803;55.762;38.084;2023-06-10T06:46:26;100183.81;;;15.38;55.81
53011;BME280;42803;55.762;38.084;2023-06-10T06:48:56;100189.94;;;15.25;55.82
53011;BME280;42803;55.762;38.084;2023-06-10T06:51:25;100195.63;;;15.06;56.56
53011;BME280;42803;55.762;38.084;2023-06-10T06:54:13;100192.03;;;15.18;56.43
53011;BME280;42803;55.762;38.084;2023-06-10T06:59:31;100209.50;;;14.44;57.82
53011;BME280;42803;55.762;38.084;2023-06-10T07:02:00;100217.50;;;14.10;57.63
53011;BME280;42803;55.762;38.084;2023-06-10T07:04:31;100205.41;;;13.88;58.47
53011;BME280;42803;55.762;38.084;2023-06-10T07:07:01;100212.03;;;13.83;58.23
53011;BME280;42803;55.762;38.084;2023-06-10T07:09:34;100217.06;;;14.27;58.00
53011;BME280;42803;55.762;38.084;2023-06-10T07:12:06;100210.13;;;14.76;56.48
53011;BME280;42803;55.762;38.084;2023-06-10T07:14:35;100214.06;;;14.70;54.86
53011;BME280;42803;55.762;38.084;2023-06-10T07:17:05;100211.31;;;14.45;54.85
53011;BME280;42803;55.762;38.084;2023-06-10T07:19:34;100212.94;;;14.54;54.50
53011;BME280;42803;55.762;38.084;2023-06-10T07:22:04;100204.94;;;14.29;54.40
53011;BME280;42803;55.762;38.084;2023-06-10T07:24:33;100206.53;;;14.62;54.06
53011;BME280;42803;55.762;38.084;2023-06-10T07:27:02;100207.03;;;15.07;53.25
53011;BME280;42803;55.762;38.084;2023-06-10T07:29:34;100211.44;;;14.95;53.02
53011;BME280;42803;55.762;38.084;2023-06-10T07:32:04;100216.09;;;14.74;53.46
53011;BME280;42803;55.762;38.084;2023-06-10T07:34:33;100215.38;;;14.76;53.23
53011;BME280;42803;55.762;38.084;2023-06-10T07:37:03;100218.09;;;14.90;53.25
53011;BME280;42803;55.762;38.084;2023-06-10T07:39:32;100217.88;;;14.86;53.04
53011;BME280;42803;55.762;38.084;2023-06-10T07:42:02;100217.88;;;14.86;52.17
53011;BME280;42803;55.762;38.084;2023-06-10T07:44:31;100218.94;;;14.65;52.74
53011;BME280;42803;55.762;38.084;2023-06-10T07:47:02;100230.97;;;14.73;53.58
53011;BME280;42803;55.762;38.084;2023-06-10T07:49:31;100237.31;;;14.89;52.62
53011;BME280;42803;55.762;38.084;2023-06-10T07:52:00;100230.78;;;14.83;51.54
53011;BME280;42803;55.762;38.084;2023-06-10T07:54:29;100233.66;;;14.86;50.86
53011;BME280;42803;55.762;38.084;2023-06-10T07:56:58;100245.63;;;14.58;51.33
53011;BME280;42803;55.762;38.084;2023-06-10T07:59:28;100239.13;;;14.90;51.51
53011;BME280;42803;55.762;38.084;2023-06-10T08:01:57;100242.44;;;15.24;51.42
53011;BME280;42803;55.762;38.084;2023-06-10T08:04:27;100226.72;;;15.12;49.32
53011;BME280;42803;55.762;38.084;2023-06-10T08:06:58;100234.41;;;15.22;49.09
53011;BME280;42803;55.762;38.084;2023-06-10T08:09:27;100245.16;;;15.25;48.89
53011;BME280;42803;55.762;38.084;2023-06-10T08:11:56;100240.59;;;15.48;48.88
53011;BME280;42803;55.762;38.084;2023-06-10T08:14:27;100246.78;;;15.23;48.29
53011;BME280;42803;55.762;38.084;2023-06-10T08:16:56;100251.59;;;15.17;48.25
53011;BME280;42803;55.762;38.084;2023-06-10T08:19:26;100237.88;;;15.21;47.76
53011;BME280;42803;55.762;38.084;2023-06-10T08:21:56;100240.81;;;15.01;47.89
53011;BME280;42803;55.762;38.084;2023-06-10T08:24:25;100251.06;;;14.61;49.05
53011;BME280;42803;55.762;38.084;2023-06-10T08:26:54;100256.69;;;15.02;49.34
53011;BME280;42803;55.762;38.084;2023-06-10T08:29:25;100263.66;;;15.02;49.56
53011;BME280;42803;55.762;38.084;2023-06-10T08:31:55;100244.19;;;15.36;48.16
53011;BME280;42803;55.762;38.084;2023-06-10T08:34:24;100248.97;;;15.17;48.09
53011;BME280;42803;55.762;38.084;2023-06-10T08:36:55;100251.00;;;14.96;48.42
53011;BME280;42803;55.762;38.084;2023-06-10T08:39:24;100264.47;;;15.01;48.73
53011;BME280;42803;55.762;38.084;2023-06-10T08:42:01;100270.38;;;15.10;48.73
53011;BME280;42803;55.762;38.084;2023-06-10T08:44:35;100263.97;;;15.43;47.62
53011;BME280;42803;55.762;38.084;2023-06-10T08:47:10;100258.25;;;15.62;46.26
53011;BME280;42803;55.762;38.084;2023-06-10T08:49:43;100264.38;;;16.13;46.48
53011;BME280;42803;55.762;38.084;2023-06-10T08:52:16;100286.41;;;16.79;44.35
53011;BME280;42803;55.762;38.084;2023-06-10T08:54:49;100261.50;;;17.02;42.82
53011;BME280;42803;55.762;38.084;2023-06-10T08:57:20;100278.06;;;17.56;43.56
53011;BME280;42803;55.762;38.084;2023-06-10T08:59:49;100272.53;;;17.10;43.97
53011;BME280;42803;55.762;38.084;2023-06-10T09:02:19;100277.63;;;16.67;44.64
53011;BME280;42803;55.762;38.084;2023-06-10T09:04:49;100270.56;;;16.40;45.67
53011;BME280;42803;55.762;38.084;2023-06-10T09:07:20;100272.69;;;16.32;46.23
53011;BME280;42803;55.762;38.084;2023-06-10T09:09:51;100266.81;;;16.23;45.94
53011;BME280;42803;55.762;38.084;2023-06-10T09:12:22;100276.13;;;16.04;44.49
53011;BME280;42803;55.762;38.084;2023-06-10T09:14:51;100287.16;;;16.25;44.38
53011;BME280;42803;55.762;38.084;2023-06-10T09:17:22;100278.75;;;16.18;44.36
53011;BME280;42803;55.762;38.084;2023-06-10T09:19:52;100275.13;;;16.69;44.52
53011;BME280;42803;55.762;38.084;2023-06-10T09:22:24;100271.88;;;17.70;43.49
53011;BME280;42803;55.762;38.084;2023-06-10T09:25:02;100262.75;;;17.65;42.65
53011;BME280;42803;55.762;38.084;2023-06-10T09:27:33;100277.13;;;17.27;42.78
53011;BME280;42803;55.762;38.084;2023-06-10T09:30:23;100286.06;;;16.62;43.56
53011;BME280;42803;55.762;38.084;2023-06-10T09:32:53;100279.38;;;16.53;44.27
53011;BME280;42803;55.762;38.084;2023-06-10T09:35:25;100276.25;;;16.46;44.43
53011;BME280;42803;55.762;38.084;2023-06-10T09:37:57;100281.25;;;17.09;44.49
53011;BME280;42803;55.762;38.084;2023-06-10T09:40:27;100282.38;;;17.41;43.92
53011;BME280;42803;55.762;38.084;2023-06-10T09:42:58;100277.56;;;17.48;43.07
53011;BME280;42803;55.762;38.084;2023-06-10T09:45:30;100271.44;;;16.93;43.44
53011;BME280;42803;55.762;38.084;2023-06-10T09:48:00;100282.50;;;16.48;43.13
53011;BME280;42803;55.762;38.084;2023-06-10T09:50:33;100286.56;;;16.43;44.15
53011;BME280;42803;55.762;38.084;2023-06-10T09:53:06;100288.88;;;17.04;42.37
53011;BME280;42803;55.762;38.084;2023-06-10T09:55:37;100279.16;;;17.60;42.07
53011;BME280;42803;55.762;38.084;2023-06-10T09:58:07;100289.34;;;17.68;42.24
53011;BME280;42803;55.762;38.084;2023-06-10T10:00:36;100278.13;;;17.86;41.91
53011;BME280;42803;55.762;38.084;2023-06-10T10:03:06;100296.44;;;17.13;41.93
53011;BME280;42803;55.762;38.084;2023-06-10T10:05:35;100286.28;;;16.65;42.33
53011;BME280;42803;55.762;38.084;2023-06-10T10:08:06;100289.31;;;16.44;43.32
53011;BME280;42803;55.762;38.084;2023-06-10T10:10:35;100284.47;;;16.37;43.69
53011;BME280;42803;55.762;38.084;2023-06-10T10:13:05;100294.25;;;16.00;43.90
53011;BME280;42803;55.762;38.084;2023-06-10T10:15:34;100284.78;;;15.90;44.42
53011;BME280;42803;55.762;38.084;2023-06-10T10:18:09;100284.34;;;16.36;44.37
53011;BME280;42803;55.762;38.084;2023-06-10T10:20:43;100290.72;;;16.92;43.56
53011;BME280;42803;55.762;38.084;2023-06-10T10:23:23;100290.19;;;16.98;42.74
53011;BME280;42803;55.762;38.084;2023-06-10T10:25:57;100304.72;;;16.38;42.17
53011;BME280;42803;55.762;38.084;2023-06-10T10:28:34;100297.31;;;16.19;42.04
53011;BME280;42803;55.762;38.084;2023-06-10T10:31:08;100296.06;;;16.01;42.21
53011;BME280;42803;55.762;38.084;2023-06-10T10:33:52;100293.47;;;16.14;42.87
53011;BME280;42803;55.762;38.084;2023-06-10T10:36:24;100292.75;;;16.70;42.24
53011;BME280;42803;55.762;38.084;2023-06-10T10:38:56;100279.69;;;16.71;41.97
53011;BME280;42803;55.762;38.084;2023-06-10T10:41:26;100279.34;;;17.35;41.32
53011;BME280;42803;55.762;38.084;2023-06-10T10:43:56;100270.84;;;17.96;40.73
53011;BME280;42803;55.762;38.084;2023-06-10T10:46:25;100266.94;;;18.80;39.97
53011;BME280;42803;55.762;38.084;2023-06-10T10:48:55;100276.56;;;18.34;40.04
53011;BME280;42803;55.762;38.084;2023-06-10T10:51:25;100287.31;;;17.77;40.48
53011;BME280;42803;55.762;38.084;2023-06-10T10:54:13;100288.75;;;17.44;41.65
53011;BME280;42803;55.762;38.084;2023-06-10T10:59:52;100302.19;;;16.93;41.73
53011;BME280;42803;55.762;38.084;2023-06-10T11:02:35;100297.91;;;16.55;41.99
53011;BME280;42803;55.762;38.084;2023-06-10T11:05:08;100289.47;;;17.14;41.87
53011;BME280;42803;55.762;38.084;2023-06-10T11:07:38;100296.25;;;17.80;41.16
53011;BME280;42803;55.762;38.084;2023-06-10T11:10:10;100314.34;;;17.45;40.64
53011;BME280;42803;55.762;38.084;2023-06-10T11:12:50;100304.81;;;17.06;41.18
53011;BME280;42803;55.762;38.084;2023-06-10T11:15:23;100308.69;;;16.85;41.29
53011;BME280;42803;55.762;38.084;2023-06-10T11:18:10;100299.59;;;16.79;41.02
53011;BME280;42803;55.762;38.084;2023-06-10T11:20:51;100298.34;;;16.61;41.34
53011;BME280;42803;55.762;38.084;2023-06-10T11:23:30;100293.25;;;16.24;42.14
53011;BME280;42803;55.762;38.084;2023-06-10T11:26:20;100288.25;;;16.02;42.83
53011;BME280;42803;55.762;38.084;2023-06-10T11:29:06;100294.88;;;16.36;42.66
53011;BME280;42803;55.762;38.084;2023-06-10T11:31:44;100281.16;;;17.08;41.62
53011;BME280;42803;55.762;38.084;2023-06-10T11:34:15;100284.50;;;18.04;40.96
53011;BME280;42803;55.762;38.084;2023-06-10T11:36:44;100291.16;;;18.27;40.43
53011;BME280;42803;55.762;38.084;2023-06-10T11:39:14;100300.22;;;17.45;40.14
53011;BME280;42803;55.762;38.084;2023-06-10T11:41:46;100298.94;;;16.70;41.44
53011;BME280;42803;55.762;38.084;2023-06-10T11:44:15;100314.31;;;16.24;41.69
53011;BME280;42803;55.762;38.084;2023-06-10T11:46:48;100299.19;;;15.95;42.86
53011;BME280;42803;55.762;38.084;2023-06-10T11:49:17;100301.41;;;15.89;42.73
53011;BME280;42803;55.762;38.084;2023-06-10T11:51:46;100308.34;;;15.75;42.99
53011;BME280;42803;55.762;38.084;2023-06-10T11:54:21;100293.66;;;15.79;43.08
53011;BME280;42803;55.762;38.084;2023-06-10T11:56:57;100289.63;;;16.49;42.47
53011;BME280;42803;55.762;38.084;2023-06-10T11:59:27;100284.41;;;17.03;41.20
53011;BME280;42803;55.762;38.084;2023-06-10T12:01:57;100283.34;;;17.56;40.88
53011;BME280;42803;55.762;38.084;2023-06-10T12:04:27;100293.66;;;17.38;40.81
53011;BME280;42803;55.762;38.084;2023-06-10T12:06:56;100291.56;;;17.19;41.28
53011;BME280;42803;55.762;38.084;2023-06-10T12:09:27;100298.94;;;17.38;41.38
53011;BME280;42803;55.762;38.084;2023-06-10T12:11:59;100304.81;;;16.93;41.65
53011;BME280;42803;55.762;38.084;2023-06-10T12:15:02;100297.72;;;16.52;41.51
53011;BME280;42803;55.762;38.084;2023-06-10T12:17:37;100308.66;;;16.98;41.17
53011;BME280;42803;55.762;38.084;2023-06-10T12:20:08;100306.63;;;17.07;41.04
53011;BME280;42803;55.762;38.084;2023-06-10T12:22:40;100306.34;;;16.63;41.16
53011;BME280;42803;55.762;38.084;2023-06-10T12:25:11;100326.09;;;16.29;42.18
53011;BME280;42803;55.762;38.084;2023-06-10T12:27:50;100302.16;;;16.13;42.28
53011;BME280;42803;55.762;38.084;2023-06-10T12:30:21;100297.94;;;15.90;42.66
53011;BME280;42803;55.762;38.084;2023-06-10T12:32:51;100300.50;;;15.89;43.64
53011;BME280;42803;55.762;38.084;2023-06-10T12:35:22;100306.66;;;15.76;43.96
53011;BME280;42803;55.762;38.084;2023-06-10T12:37:55;100293.59;;;15.91;44.49
53011;BME280;42803;55.762;38.084;2023-06-10T12:40:29;100300.84;;;16.60;43.32
53011;BME280;42803;55.762;38.084;2023-06-10T12:43:01;100291.63;;;16.93;42.84
53011;BME280;42803;55.762;38.084;2023-06-10T12:45:33;100296.09;;;17.63;41.86
53011;BME280;42803;55.762;38.084;2023-06-10T12:48:07;100296.16;;;17.93;40.99
53011;BME280;42803;55.762;38.084;2023-06-10T12:50:40;100290.78;;;17.48;41.23
53011;BME280;42803;55.762;38.084;2023-06-10T12:53:10;100304.13;;;16.95;41.11
53011;BME280;42803;55.762;38.084;2023-06-10T12:55:40;100296.28;;;16.70;41.38
53011;BME280;42803;55.762;38.084;2023-06-10T12:58:10;100291.25;;;16.60;41.63
53011;BME280;42803;55.762;38.084;2023-06-10T13:00:40;100297.31;;;16.86;41.48
53011;BME280;42803;55.762;38.084;2023-06-10T13:03:10;100294.19;;;16.78;41.62
53011;BME280;42803;55.762;38.084;2023-06-10T13:05:39;100301.00;;;16.74;42.18
53011;BME280;42803;55.762;38.084;2023-06-10T13:08:08;100304.59;;;16.63;42.74
53011;BME280;42803;55.762;38.084;2023-06-10T13:10:39;100297.31;;;16.72;43.26